sensor_id;sensor_type;location;lat;lon;timestamp;P1;durP1;ratioP1;P2;durP2;ratioP2
68577;SDS011;61668;45.388;11.784;2022-09-09T00:04:35;13.70;;;5.10;;
68577;SDS011;61668;45.388;11.784;2022-09-09T00:07:28;12.50;;;5.40;;
68577;SDS011;61668;45.388;11.784;2022-09-09T00:16:09;15.00;;;6.20;;
68577;SDS011;61668;45.388;11.784;2022-09-09T00:19:07;15.40;;;5.90;;
68577;SDS011;61668;45.388;11.784;2022-09-09T00:21:40;15.40;;;7.00;;
68577;SDS011;61668;45.388;11.784;2022-09-09T00:24:46;13.80;;;5.60;;
68577;SDS011;61668;45.388;11.784;2022-09-09T00:32:36;13.80;;;7.10;;
68577;SDS011;61668;45.388;11.784;2022-09-09T00:35:21;16.70;;;7.10;;
68577;SDS011;61668;45.388;11.784;2022-09-09T00:38:17;14.70;;;6.10;;
68577;SDS011;61668;45.388;11.784;2022-09-09T00:43:39;14.40;;;6.90;;
68577;SDS011;61668;45.388;11.784;2022-09-09T00:52:08;13.80;;;6.40;;
68577;SDS011;61668;45.388;11.784;2022-09-09T00:57:37;13.60;;;6.40;;
68577;SDS011;61668;45.388;11.784;2022-09-09T01:08:01;15.60;;;7.40;;
68577;SDS011;61668;45.388;11.784;2022-09-09T01:10:52;16.60;;;7.00;;
68577;SDS011;61668;45.388;11.784;2022-09-09T01:13:25;16.40;;;7.70;;
68577;SDS011;61668;45.388;11.784;2022-09-09T01:15:57;15.30;;;7.30;;
68577;SDS011;61668;45.388;11.784;2022-09-09T01:18:27;14.60;;;7.30;;
68577;SDS011;61668;45.388;11.784;2022-09-09T01:26:45;16.20;;;8.10;;
68577;SDS011;61668;45.388;11.784;2022-09-09T01:29:14;14.80;;;8.60;;
68577;SDS011;61668;45.388;11.784;2022-09-09T01:31:56;14.50;;;8.00;;
68577;SDS011;61668;45.388;11.784;2022-09-09T01:34:25;13.90;;;7.70;;
68577;SDS011;61668;45.388;11.784;2022-09-09T01:37:00;14.20;;;6.90;;
68577;SDS011;61668;45.388;11.784;2022-09-09T01:39:30;14.00;;;7.60;;
68577;SDS011;61668;45.388;11.784;2022-09-09T01:41:56;11.10;;;5.40;;
68577;SDS011;61668;45.388;11.784;2022-09-09T01:44:22;13.40;;;6.70;;
68577;SDS011;61668;45.388;11.784;2022-09-09T01:46:48;16.80;;;7.00;;
68577;SDS011;61668;45.388;11.784;2022-09-09T01:49:13;16.00;;;7.70;;
68577;SDS011;61668;45.388;11.784;2022-09-09T01:51:40;14.00;;;6.60;;
68577;SDS011;61668;45.388;11.784;2022-09-09T01:54:07;13.50;;;6.60;;
68577;SDS011;61668;45.388;11.784;2022-09-09T02:02:10;14.50;;;6.40;;
68577;SDS011;61668;45.388;11.784;2022-09-09T02:04:47;15.80;;;6.70;;
68577;SDS011;61668;45.388;11.784;2022-09-09T02:07:41;13.30;;;5.90;;
68577;SDS011;61668;45.388;11.784;2022-09-09T02:12:55;13.20;;;5.90;;
68577;SDS011;61668;45.388;11.784;2022-09-09T02:15:32;12.00;;;5.40;;
68577;SDS011;61668;45.388;11.784;2022-09-09T02:18:26;13.10;;;6.00;;
68577;SDS011;61668;45.388;11.784;2022-09-09T02:20:54;11.70;;;5.30;;
68577;SDS011;61668;45.388;11.784;2022-09-09T02:23:23;15.00;;;5.60;;
68577;SDS011;61668;45.388;11.784;2022-09-09T02:25:49;13.70;;;4.40;;
68577;SDS011;61668;45.388;11.784;2022-09-09T02:28:18;11.70;;;4.70;;
68577;SDS011;61668;45.388;11.784;2022-09-09T02:30:48;11.50;;;5.70;;
68577;SDS011;61668;45.388;11.784;2022-09-09T02:33:27;12.10;;;5.50;;
68577;SDS011;61668;45.388;11.784;2022-09-09T02:36:01;11.00;;;4.70;;
68577;SDS011;61668;45.388;11.784;2022-09-09T02:38:34;11.60;;;4.50;;
68577;SDS011;61668;45.388;11.784;2022-09-09T02:41:02;13.40;;;5.40;;
68577;SDS011;61668;45.388;11.784;2022-09-09T02:43:33;12.10;;;4.50;;
68577;SDS011;61668;45.388;11.784;2022-09-09T02:49:17;10.90;;;4.40;;
68577;SDS011;61668;45.388;11.784;2022-09-09T02:52:06;10.20;;;4.20;;
68577;SDS011;61668;45.388;11.784;2022-09-09T02:54:42;12.30;;;5.00;;
68577;SDS011;61668;45.388;11.784;2022-09-09T02:57:19;9.10;;;3.70;;
68577;SDS011;61668;45.388;11.784;2022-09-09T02:59:49;9.60;;;3.70;;
68577;SDS011;61668;45.388;11.784;2022-09-09T03:02:17;9.60;;;4.30;;
68577;SDS011;61668;45.388;11.784;2022-09-09T03:04:43;10.40;;;4.30;;
68577;SDS011;61668;45.388;11.784;2022-09-09T03:07:10;10.40;;;3.20;;
68577;SDS011;61668;45.388;11.784;2022-09-09T03:09:37;9.00;;;3.20;;
68577;SDS011;61668;45.388;11.784;2022-09-09T03:12:03;12.90;;;3.40;;
68577;SDS011;61668;45.388;11.784;2022-09-09T03:14:30;8.90;;;3.40;;
68577;SDS011;61668;45.388;11.784;2022-09-09T03:16:56;9.30;;;2.70;;
68577;SDS011;61668;45.388;11.784;2022-09-09T03:19:25;8.80;;;2.80;;
68577;SDS011;61668;45.388;11.784;2022-09-09T03:21:51;10.80;;;3.50;;
68577;SDS011;61668;45.388;11.784;2022-09-09T03:24:17;10.30;;;3.40;;
68577;SDS011;61668;45.388;11.784;2022-09-09T03:26:42;8.40;;;2.90;;
68577;SDS011;61668;45.388;11.784;2022-09-09T03:29:11;10.10;;;3.10;;
68577;SDS011;61668;45.388;11.784;2022-09-09T03:31:38;12.50;;;3.30;;
68577;SDS011;61668;45.388;11.784;2022-09-09T03:34:04;9.60;;;4.00;;
68577;SDS011;61668;45.388;11.784;2022-09-09T03:36:31;8.90;;;2.90;;
68577;SDS011;61668;45.388;11.784;2022-09-09T03:38:56;9.80;;;3.00;;
68577;SDS011;61668;45.388;11.784;2022-09-09T03:43:55;8.80;;;3.00;;
68577;SDS011;61668;45.388;11.784;2022-09-09T03:46:23;10.40;;;3.80;;
68577;SDS011;61668;45.388;11.784;2022-09-09T03:48:50;9.50;;;3.20;;
68577;SDS011;61668;45.388;11.784;2022-09-09T03:51:17;10.30;;;3.50;;
68577;SDS011;61668;45.388;11.784;2022-09-09T03:53:43;8.70;;;3.50;;
68577;SDS011;61668;45.388;11.784;2022-09-09T03:56:09;9.60;;;3.20;;
68577;SDS011;61668;45.388;11.784;2022-09-09T03:58:36;13.40;;;3.50;;
68577;SDS011;61668;45.388;11.784;2022-09-09T04:01:05;9.80;;;3.80;;
68577;SDS011;61668;45.388;11.784;2022-09-09T04:03:35;9.20;;;3.40;;
68577;SDS011;61668;45.388;11.784;2022-09-09T04:06:02;10.30;;;3.60;;
68577;SDS011;61668;45.388;11.784;2022-09-09T04:08:29;10.30;;;3.70;;
68577;SDS011;61668;45.388;11.784;2022-09-09T04:10:58;9.00;;;3.00;;
68577;SDS011;61668;45.388;11.784;2022-09-09T04:13:25;12.40;;;3.90;;
68577;SDS011;61668;45.388;11.784;2022-09-09T04:15:53;8.40;;;2.70;;
68577;SDS011;61668;45.388;11.784;2022-09-09T04:18:21;9.60;;;3.40;;
68577;SDS011;61668;45.388;11.784;2022-09-09T04:20:48;11.20;;;3.40;;
68577;SDS011;61668;45.388;11.784;2022-09-09T04:23:15;9.60;;;3.40;;
68577;SDS011;61668;45.388;11.784;2022-09-09T04:25:49;11.10;;;4.10;;
68577;SDS011;61668;45.388;11.784;2022-09-09T04:28:18;9.30;;;3.50;;
68577;SDS011;61668;45.388;11.784;2022-09-09T04:30:45;8.60;;;3.10;;
68577;SDS011;61668;45.388;11.784;2022-09-09T04:33:12;11.00;;;3.80;;
68577;SDS011;61668;45.388;11.784;2022-09-09T04:35:39;9.70;;;3.80;;
68577;SDS011;61668;45.388;11.784;2022-09-09T04:38:09;9.90;;;3.50;;
68577;SDS011;61668;45.388;11.784;2022-09-09T04:40:35;9.70;;;4.10;;
68577;SDS011;61668;45.388;11.784;2022-09-09T04:43:02;9.80;;;3.80;;
68577;SDS011;61668;45.388;11.784;2022-09-09T04:45:30;10.80;;;3.60;;
68577;SDS011;61668;45.388;11.784;2022-09-09T04:47:56;11.20;;;4.10;;
68577;SDS011;61668;45.388;11.784;2022-09-09T04:50:22;10.90;;;3.70;;
68577;SDS011;61668;45.388;11.784;2022-09-09T04:52:48;8.80;;;2.90;;
68577;SDS011;61668;45.388;11.784;2022-09-09T04:55:13;10.90;;;3.20;;
68577;SDS011;61668;45.388;11.784;2022-09-09T04:57:40;8.20;;;3.00;;
68577;SDS011;61668;45.388;11.784;2022-09-09T05:00:06;11.00;;;3.70;;
68577;SDS011;61668;45.388;11.784;2022-09-09T05:02:32;10.30;;;3.80;;
68577;SDS011;61668;45.388;11.784;2022-09-09T05:04:58;10.40;;;3.40;;
68577;SDS011;61668;45.388;11.784;2022-09-09T05:07:26;12.70;;;3.90;;
68577;SDS011;61668;45.388;11.784;2022-09-09T05:09:52;10.70;;;4.60;;
68577;SDS011;61668;45.388;11.784;2022-09-09T05:12:17;8.40;;;2.70;;
68577;SDS011;61668;45.388;11.784;2022-09-09T05:14:43;11.30;;;3.30;;
68577;SDS011;61668;45.388;11.784;2022-09-09T05:17:09;9.80;;;3.10;;
68577;SDS011;61668;45.388;11.784;2022-09-09T05:19:35;8.00;;;2.70;;
68577;SDS011;61668;45.388;11.784;2022-09-09T05:22:01;8.70;;;2.70;;
68577;SDS011;61668;45.388;11.784;2022-09-09T05:24:27;10.00;;;3.50;;
68577;SDS011;61668;45.388;11.784;2022-09-09T05:26:53;9.60;;;3.50;;
68577;SDS011;61668;45.388;11.784;2022-09-09T05:29:19;9.30;;;3.50;;
68577;SDS011;61668;45.388;11.784;2022-09-09T05:31:45;11.40;;;3.50;;
68577;SDS011;61668;45.388;11.784;2022-09-09T05:34:12;11.10;;;3.90;;
68577;SDS011;61668;45.388;11.784;2022-09-09T05:36:38;10.90;;;2.80;;
68577;SDS011;61668;45.388;11.784;2022-09-09T05:39:04;12.10;;;4.60;;
68577;SDS011;61668;45.388;11.784;2022-09-09T05:41:29;11.20;;;3.60;;
68577;SDS011;61668;45.388;11.784;2022-09-09T05:43:56;10.90;;;3.90;;
68577;SDS011;61668;45.388;11.784;2022-09-09T05:46:25;10.10;;;3.60;;
68577;SDS011;61668;45.388;11.784;2022-09-09T05:48:51;9.10;;;4.10;;
68577;SDS011;61668;45.388;11.784;2022-09-09T05:51:24;10.80;;;3.80;;
68577;SDS011;61668;45.388;11.784;2022-09-09T05:53:52;11.00;;;3.40;;
68577;SDS011;61668;45.388;11.784;2022-09-09T05:56:23;9.00;;;3.20;;
68577;SDS011;61668;45.388;11.784;2022-09-09T05:58:54;9.80;;;3.20;;
68577;SDS011;61668;45.388;11.784;2022-09-09T06:03:50;11.60;;;3.00;;
68577;SDS011;61668;45.388;11.784;2022-09-09T06:06:22;8.90;;;3.20;;
68577;SDS011;61668;45.388;11.784;2022-09-09T06:08:54;12.70;;;3.70;;
68577;SDS011;61668;45.388;11.784;2022-09-09T06:11:27;9.40;;;3.80;;
68577;SDS011;61668;45.388;11.784;2022-09-09T06:13:58;8.40;;;3.40;;
68577;SDS011;61668;45.388;11.784;2022-09-09T06:16:26;9.10;;;3.10;;
68577;SDS011;61668;45.388;11.784;2022-09-09T06:18:54;12.30;;;2.70;;
68577;SDS011;61668;45.388;11.784;2022-09-09T06:21:29;11.20;;;3.30;;
68577;SDS011;61668;45.388;11.784;2022-09-09T06:23:57;9.80;;;2.60;;
68577;SDS011;61668;45.388;11.784;2022-09-09T06:26:31;10.40;;;3.00;;
68577;SDS011;61668;45.388;11.784;2022-09-09T06:28:58;11.00;;;2.90;;
68577;SDS011;61668;45.388;11.784;2022-09-09T06:31:28;10.40;;;3.20;;
68577;SDS011;61668;45.388;11.784;2022-09-09T06:33:56;8.90;;;2.80;;
68577;SDS011;61668;45.388;11.784;2022-09-09T06:36:24;9.60;;;3.80;;
68577;SDS011;61668;45.388;11.784;2022-09-09T06:38:51;9.50;;;3.40;;
68577;SDS011;61668;45.388;11.784;2022-09-09T06:41:19;9.30;;;3.50;;
68577;SDS011;61668;45.388;11.784;2022-09-09T06:43:46;12.60;;;4.70;;
68577;SDS011;61668;45.388;11.784;2022-09-09T06:46:23;11.70;;;4.00;;
68577;SDS011;61668;45.388;11.784;2022-09-09T06:48:55;12.30;;;3.50;;
68577;SDS011;61668;45.388;11.784;2022-09-09T06:51:26;11.60;;;4.00;;
68577;SDS011;61668;45.388;11.784;2022-09-09T06:53:54;9.30;;;3.20;;
68577;SDS011;61668;45.388;11.784;2022-09-09T06:56:32;11.40;;;3.40;;
68577;SDS011;61668;45.388;11.784;2022-09-09T06:59:03;11.10;;;3.50;;
68577;SDS011;61668;45.388;11.784;2022-09-09T07:01:32;11.40;;;3.60;;
68577;SDS011;61668;45.388;11.784;2022-09-09T07:04:00;12.40;;;3.70;;
68577;SDS011;61668;45.388;11.784;2022-09-09T07:06:29;9.50;;;3.00;;
68577;SDS011;61668;45.388;11.784;2022-09-09T07:09:02;10.20;;;2.80;;
68577;SDS011;61668;45.388;11.784;2022-09-09T07:11:34;11.20;;;3.60;;
68577;SDS011;61668;45.388;11.784;2022-09-09T07:14:03;10.10;;;4.00;;
68577;SDS011;61668;45.388;11.784;2022-09-09T07:16:28;10.10;;;3.50;;
68577;SDS011;61668;45.388;11.784;2022-09-09T07:18:56;10.00;;;3.60;;
68577;SDS011;61668;45.388;11.784;2022-09-09T07:21:27;9.90;;;3.50;;
68577;SDS011;61668;45.388;11.784;2022-09-09T07:23:54;9.90;;;2.60;;
68577;SDS011;61668;45.388;11.784;2022-09-09T07:26:22;10.80;;;2.70;;
68577;SDS011;61668;45.388;11.784;2022-09-09T07:28:49;9.90;;;3.40;;
68577;SDS011;61668;45.388;11.784;2022-09-09T07:31:17;10.10;;;4.00;;
68577;SDS011;61668;45.388;11.784;2022-09-09T07:33:48;11.20;;;3.70;;
68577;SDS011;61668;45.388;11.784;2022-09-09T07:36:19;11.50;;;4.30;;
68577;SDS011;61668;45.388;11.784;2022-09-09T07:38:51;9.30;;;3.20;;
68577;SDS011;61668;45.388;11.784;2022-09-09T07:41:21;9.80;;;2.70;;
68577;SDS011;61668;45.388;11.784;2022-09-09T07:43:49;11.60;;;3.90;;
68577;SDS011;61668;45.388;11.784;2022-09-09T07:46:17;11.70;;;3.20;;
68577;SDS011;61668;45.388;11.784;2022-09-09T07:48:49;9.60;;;3.40;;
68577;SDS011;61668;45.388;11.784;2022-09-09T07:51:19;9.40;;;3.10;;
68577;SDS011;61668;45.388;11.784;2022-09-09T07:53:48;8.20;;;2.70;;
68577;SDS011;61668;45.388;11.784;2022-09-09T07:56:18;9.10;;;2.70;;
68577;SDS011;61668;45.388;11.784;2022-09-09T07:58:47;10.20;;;2.70;;
68577;SDS011;61668;45.388;11.784;2022-09-09T08:01:25;9.50;;;2.60;;
68577;SDS011;61668;45.388;11.784;2022-09-09T08:03:55;9.20;;;2.70;;
68577;SDS011;61668;45.388;11.784;2022-09-09T08:06:28;9.90;;;2.70;;
68577;SDS011;61668;45.388;11.784;2022-09-09T08:08:54;13.90;;;3.40;;
68577;SDS011;61668;45.388;11.784;2022-09-09T08:11:22;7.30;;;2.60;;
68577;SDS011;61668;45.388;11.784;2022-09-09T08:13:51;11.00;;;2.80;;
68577;SDS011;61668;45.388;11.784;2022-09-09T08:16:19;8.40;;;2.90;;
68577;SDS011;61668;45.388;11.784;2022-09-09T08:18:50;9.50;;;3.40;;
68577;SDS011;61668;45.388;11.784;2022-09-09T08:21:22;11.00;;;3.10;;
68577;SDS011;61668;45.388;11.784;2022-09-09T08:23:51;10.70;;;3.30;;
68577;SDS011;61668;45.388;11.784;2022-09-09T08:26:20;10.90;;;2.90;;
68577;SDS011;61668;45.388;11.784;2022-09-09T08:28:50;10.40;;;2.80;;
68577;SDS011;61668;45.388;11.784;2022-09-09T08:31:28;10.40;;;2.90;;
68577;SDS011;61668;45.388;11.784;2022-09-09T08:33:59;11.10;;;3.40;;
68577;SDS011;61668;45.388;11.784;2022-09-09T08:36:27;9.30;;;3.10;;
68577;SDS011;61668;45.388;11.784;2022-09-09T08:38:56;7.40;;;2.50;;
68577;SDS011;61668;45.388;11.784;2022-09-09T08:55:53;9.20;;;2.80;;
68577;SDS011;61668;45.388;11.784;2022-09-09T08:58:34;8.20;;;2.70;;
68577;SDS011;61668;45.388;11.784;2022-09-09T09:12:05;10.00;;;2.80;;
68577;SDS011;61668;45.388;11.784;2022-09-09T09:14:39;7.70;;;2.80;;
68577;SDS011;61668;45.388;11.784;2022-09-09T09:17:11;11.30;;;2.40;;
68577;SDS011;61668;45.388;11.784;2022-09-09T09:19:40;10.00;;;2.50;;
68577;SDS011;61668;45.388;11.784;2022-09-09T09:24:55;8.40;;;2.80;;
68577;SDS011;61668;45.388;11.784;2022-09-09T09:28:03;8.00;;;2.70;;
68577;SDS011;61668;45.388;11.784;2022-09-09T09:33:36;10.80;;;2.80;;
68577;SDS011;61668;45.388;11.784;2022-09-09T09:36:08;10.10;;;2.50;;
68577;SDS011;61668;45.388;11.784;2022-09-09T09:38:35;7.90;;;2.80;;
68577;SDS011;61668;45.388;11.784;2022-09-09T09:41:02;7.50;;;2.40;;
68577;SDS011;61668;45.388;11.784;2022-09-09T09:43:30;10.00;;;2.20;;
68577;SDS011;61668;45.388;11.784;2022-09-09T09:45:58;8.10;;;3.50;;
68577;SDS011;61668;45.388;11.784;2022-09-09T09:48:25;8.30;;;2.40;;
68577;SDS011;61668;45.388;11.784;2022-09-09T09:50:57;6.90;;;2.00;;
68577;SDS011;61668;45.388;11.784;2022-09-09T09:53:27;8.70;;;1.90;;
68577;SDS011;61668;45.388;11.784;2022-09-09T09:56:02;9.40;;;2.80;;
68577;SDS011;61668;45.388;11.784;2022-09-09T10:01:26;7.30;;;1.60;;
68577;SDS011;61668;45.388;11.784;2022-09-09T10:03:59;6.40;;;1.70;;
68577;SDS011;61668;45.388;11.784;2022-09-09T10:06:34;7.20;;;1.90;;
68577;SDS011;61668;45.388;11.784;2022-09-09T10:09:04;7.10;;;1.40;;
68577;SDS011;61668;45.388;11.784;2022-09-09T10:21:30;8.40;;;1.80;;
68577;SDS011;61668;45.388;11.784;2022-09-09T10:33:42;7.80;;;2.30;;
68577;SDS011;61668;45.388;11.784;2022-09-09T10:36:20;10.00;;;1.50;;
68577;SDS011;61668;45.388;11.784;2022-09-09T10:39:06;8.00;;;1.80;;
68577;SDS011;61668;45.388;11.784;2022-09-09T10:42:15;8.40;;;2.30;;
68577;SDS011;61668;45.388;11.784;2022-09-09T10:51:09;10.70;;;1.80;;
68577;SDS011;61668;45.388;11.784;2022-09-09T10:57:14;7.50;;;1.30;;
68577;SDS011;61668;45.388;11.784;2022-09-09T10:59:50;8.20;;;2.50;;
68577;SDS011;61668;45.388;11.784;2022-09-09T11:02:29;7.20;;;2.00;;
68577;SDS011;61668;45.388;11.784;2022-09-09T11:05:19;8.00;;;2.00;;
68577;SDS011;61668;45.388;11.784;2022-09-09T11:07:57;7.00;;;1.90;;
68577;SDS011;61668;45.388;11.784;2022-09-09T11:13:00;8.60;;;1.70;;
68577;SDS011;61668;45.388;11.784;2022-09-09T11:15:41;7.40;;;1.80;;
68577;SDS011;61668;45.388;11.784;2022-09-09T11:18:20;6.70;;;1.60;;
68577;SDS011;61668;45.388;11.784;2022-09-09T11:20:52;7.00;;;1.60;;
68577;SDS011;61668;45.388;11.784;2022-09-09T11:23:29;10.80;;;2.40;;
68577;SDS011;61668;45.388;11.784;2022-09-09T11:26:04;8.40;;;2.40;;
68577;SDS011;61668;45.388;11.784;2022-09-09T11:37:36;7.00;;;2.20;;
68577;SDS011;61668;45.388;11.784;2022-09-09T11:40:16;8.80;;;1.50;;
68577;SDS011;61668;45.388;11.784;2022-09-09T11:42:49;6.80;;;1.20;;
68577;SDS011;61668;45.388;11.784;2022-09-09T11:45:53;9.10;;;1.90;;
68577;SDS011;61668;45.388;11.784;2022-09-09T11:48:46;8.00;;;1.50;;
68577;SDS011;61668;45.388;11.784;2022-09-09T11:51:28;8.20;;;1.50;;
68577;SDS011;61668;45.388;11.784;2022-09-09T11:56:41;6.10;;;1.10;;
68577;SDS011;61668;45.388;11.784;2022-09-09T11:59:27;6.70;;;1.40;;
68577;SDS011;61668;45.388;11.784;2022-09-09T12:02:17;6.80;;;1.50;;
68577;SDS011;61668;45.388;11.784;2022-09-09T12:07:38;6.70;;;1.30;;
68577;SDS011;61668;45.388;11.784;2022-09-09T12:10:26;5.90;;;1.50;;
68577;SDS011;61668;45.388;11.784;2022-09-09T12:12:52;7.80;;;2.00;;
68577;SDS011;61668;45.388;11.784;2022-09-09T12:15:20;7.10;;;1.90;;
68577;SDS011;61668;45.388;11.784;2022-09-09T12:17:53;6.40;;;1.30;;
68577;SDS011;61668;45.388;11.784;2022-09-09T12:20:23;5.80;;;1.30;;
68577;SDS011;61668;45.388;11.784;2022-09-09T12:23:22;8.00;;;1.70;;
68577;SDS011;61668;45.388;11.784;2022-09-09T12:26:07;8.60;;;1.40;;
68577;SDS011;61668;45.388;11.784;2022-09-09T12:28:52;7.60;;;0.90;;
68577;SDS011;61668;45.388;11.784;2022-09-09T12:32:06;6.60;;;0.70;;
68577;SDS011;61668;45.388;11.784;2022-09-09T12:34:41;4.70;;;0.60;;
68577;SDS011;61668;45.388;11.784;2022-09-09T12:37:17;5.00;;;0.90;;
68577;SDS011;61668;45.388;11.784;2022-09-09T12:39:58;5.50;;;0.80;;
68577;SDS011;61668;45.388;11.784;2022-09-09T12:42:26;6.50;;;0.60;;
68577;SDS011;61668;45.388;11.784;2022-09-09T12:44:53;5.60;;;0.70;;
68577;SDS011;61668;45.388;11.784;2022-09-09T12:47:39;5.70;;;0.50;;
68577;SDS011;61668;45.388;11.784;2022-09-09T12:52:44;6.50;;;0.90;;
68577;SDS011;61668;45.388;11.784;2022-09-09T12:55:23;4.60;;;0.70;;
68577;SDS011;61668;45.388;11.784;2022-09-09T12:57:51;5.30;;;0.70;;
68577;SDS011;61668;45.388;11.784;2022-09-09T13:00:23;6.20;;;0.80;;
68577;SDS011;61668;45.388;11.784;2022-09-09T13:03:00;5.10;;;0.80;;
68577;SDS011;61668;45.388;11.784;2022-09-09T13:05:40;6.00;;;0.70;;
68577;SDS011;61668;45.388;11.784;2022-09-09T13:08:08;5.60;;;0.80;;
68577;SDS011;61668;45.388;11.784;2022-09-09T13:13:13;7.20;;;0.80;;
68577;SDS011;61668;45.388;11.784;2022-09-09T13:15:49;6.50;;;0.90;;
68577;SDS011;61668;45.388;11.784;2022-09-09T13:18:19;5.70;;;1.00;;
68577;SDS011;61668;45.388;11.784;2022-09-09T13:20:49;7.10;;;1.40;;
68577;SDS011;61668;45.388;11.784;2022-09-09T13:23:15;7.90;;;1.20;;
68577;SDS011;61668;45.388;11.784;2022-09-09T13:25:53;6.20;;;0.70;;
68577;SDS011;61668;45.388;11.784;2022-09-09T13:28:23;6.20;;;0.90;;
68577;SDS011;61668;45.388;11.784;2022-09-09T13:31:23;8.20;;;0.70;;
68577;SDS011;61668;45.388;11.784;2022-09-09T13:33:53;5.20;;;0.40;;
68577;SDS011;61668;45.388;11.784;2022-09-09T13:36:34;4.20;;;0.50;;
68577;SDS011;61668;45.388;11.784;2022-09-09T13:39:02;6.80;;;1.00;;
68577;SDS011;61668;45.388;11.784;2022-09-09T13:41:45;4.90;;;0.40;;
68577;SDS011;61668;45.388;11.784;2022-09-09T13:44:34;4.50;;;0.60;;
68577;SDS011;61668;45.388;11.784;2022-09-09T13:47:26;4.70;;;0.50;;
68577;SDS011;61668;45.388;11.784;2022-09-09T13:49:54;4.70;;;0.60;;
68577;SDS011;61668;45.388;11.784;2022-09-09T13:52:19;3.80;;;0.40;;
68577;SDS011;61668;45.388;11.784;2022-09-09T13:54:51;7.30;;;1.40;;
68577;SDS011;61668;45.388;11.784;2022-09-09T13:57:25;6.20;;;0.90;;
68577;SDS011;61668;45.388;11.784;2022-09-09T13:59:52;6.20;;;1.00;;
68577;SDS011;61668;45.388;11.784;2022-09-09T14:02:20;7.80;;;1.10;;
68577;SDS011;61668;45.388;11.784;2022-09-09T14:04:48;7.40;;;1.30;;
68577;SDS011;61668;45.388;11.784;2022-09-09T14:07:17;9.60;;;1.80;;
68577;SDS011;61668;45.388;11.784;2022-09-09T14:09:43;7.80;;;2.30;;
68577;SDS011;61668;45.388;11.784;2022-09-09T14:12:14;7.50;;;1.70;;
68577;SDS011;61668;45.388;11.784;2022-09-09T14:14:41;6.70;;;2.00;;
68577;SDS011;61668;45.388;11.784;2022-09-09T14:17:10;8.20;;;2.00;;
68577;SDS011;61668;45.388;11.784;2022-09-09T14:19:35;10.10;;;2.40;;
68577;SDS011;61668;45.388;11.784;2022-09-09T14:22:02;7.30;;;1.50;;
68577;SDS011;61668;45.388;11.784;2022-09-09T14:24:28;6.30;;;1.20;;
68577;SDS011;61668;45.388;11.784;2022-09-09T14:26:54;5.50;;;0.90;;
68577;SDS011;61668;45.388;11.784;2022-09-09T14:29:20;5.10;;;0.90;;
68577;SDS011;61668;45.388;11.784;2022-09-09T14:31:45;5.60;;;1.30;;
68577;SDS011;61668;45.388;11.784;2022-09-09T14:34:11;5.60;;;0.90;;
68577;SDS011;61668;45.388;11.784;2022-09-09T14:36:38;5.20;;;0.80;;
68577;SDS011;61668;45.388;11.784;2022-09-09T14:39:04;7.90;;;0.90;;
68577;SDS011;61668;45.388;11.784;2022-09-09T14:41:30;6.50;;;0.80;;
68577;SDS011;61668;45.388;11.784;2022-09-09T14:43:57;5.90;;;1.00;;
68577;SDS011;61668;45.388;11.784;2022-09-09T14:46:23;7.70;;;0.90;;
68577;SDS011;61668;45.388;11.784;2022-09-09T14:48:49;5.50;;;0.80;;
68577;SDS011;61668;45.388;11.784;2022-09-09T14:51:16;5.60;;;0.70;;
68577;SDS011;61668;45.388;11.784;2022-09-09T14:53:44;4.90;;;0.60;;
68577;SDS011;61668;45.388;11.784;2022-09-09T14:56:17;5.80;;;1.20;;
68577;SDS011;61668;45.388;11.784;2022-09-09T14:58:44;5.00;;;0.90;;
68577;SDS011;61668;45.388;11.784;2022-09-09T15:01:14;5.20;;;0.70;;
68577;SDS011;61668;45.388;11.784;2022-09-09T15:03:43;5.90;;;1.00;;
68577;SDS011;61668;45.388;11.784;2022-09-09T15:06:14;5.10;;;0.50;;
68577;SDS011;61668;45.388;11.784;2022-09-09T15:08:42;5.60;;;0.80;;
68577;SDS011;61668;45.388;11.784;2022-09-09T15:11:10;5.20;;;0.70;;
68577;SDS011;61668;45.388;11.784;2022-09-09T15:13:38;4.30;;;0.50;;
68577;SDS011;61668;45.388;11.784;2022-09-09T15:16:09;4.00;;;0.40;;
68577;SDS011;61668;45.388;11.784;2022-09-09T15:18:36;5.10;;;0.50;;
68577;SDS011;61668;45.388;11.784;2022-09-09T15:21:05;4.90;;;1.00;;
68577;SDS011;61668;45.388;11.784;2022-09-09T15:23:35;4.40;;;0.60;;
68577;SDS011;61668;45.388;11.784;2022-09-09T15:26:02;5.30;;;0.60;;
68577;SDS011;61668;45.388;11.784;2022-09-09T15:28:28;5.80;;;0.80;;
68577;SDS011;61668;45.388;11.784;2022-09-09T15:30:55;4.80;;;0.50;;
68577;SDS011;61668;45.388;11.784;2022-09-09T15:33:22;6.90;;;1.10;;
68577;SDS011;61668;45.388;11.784;2022-09-09T15:35:47;6.50;;;0.90;;
68577;SDS011;61668;45.388;11.784;2022-09-09T15:38:15;6.00;;;0.80;;
68577;SDS011;61668;45.388;11.784;2022-09-09T15:40:43;6.00;;;0.90;;
68577;SDS011;61668;45.388;11.784;2022-09-09T15:43:09;5.90;;;0.90;;
68577;SDS011;61668;45.388;11.784;2022-09-09T15:45:36;6.90;;;1.60;;
68577;SDS011;61668;45.388;11.784;2022-09-09T15:48:02;5.70;;;1.00;;
68577;SDS011;61668;45.388;11.784;2022-09-09T15:50:29;5.90;;;0.90;;
68577;SDS011;61668;45.388;11.784;2022-09-09T15:52:57;5.60;;;0.80;;
68577;SDS011;61668;45.388;11.784;2022-09-09T15:55:23;6.00;;;0.70;;
68577;SDS011;61668;45.388;11.784;2022-09-09T15:57:51;6.30;;;1.00;;
68577;SDS011;61668;45.388;11.784;2022-09-09T16:00:19;6.30;;;1.10;;
68577;SDS011;61668;45.388;11.784;2022-09-09T16:02:48;5.20;;;0.80;;
68577;SDS011;61668;45.388;11.784;2022-09-09T16:05:14;5.50;;;1.10;;
68577;SDS011;61668;45.388;11.784;2022-09-09T16:07:39;6.10;;;1.10;;
68577;SDS011;61668;45.388;11.784;2022-09-09T16:10:07;6.10;;;1.10;;
68577;SDS011;61668;45.388;11.784;2022-09-09T16:12:33;6.80;;;0.90;;
68577;SDS011;61668;45.388;11.784;2022-09-09T16:14:59;6.40;;;0.80;;
68577;SDS011;61668;45.388;11.784;2022-09-09T16:17:24;6.10;;;1.10;;
68577;SDS011;61668;45.388;11.784;2022-09-09T16:19:50;4.50;;;0.60;;
68577;SDS011;61668;45.388;11.784;2022-09-09T16:22:15;5.90;;;0.60;;
68577;SDS011;61668;45.388;11.784;2022-09-09T16:24:43;5.10;;;0.50;;
68577;SDS011;61668;45.388;11.784;2022-09-09T16:27:10;5.30;;;0.50;;
68577;SDS011;61668;45.388;11.784;2022-09-09T16:29:36;5.30;;;0.70;;
68577;SDS011;61668;45.388;11.784;2022-09-09T16:32:02;4.30;;;0.80;;
68577;SDS011;61668;45.388;11.784;2022-09-09T16:34:27;6.00;;;1.10;;
68577;SDS011;61668;45.388;11.784;2022-09-09T16:36:53;7.20;;;1.00;;
68577;SDS011;61668;45.388;11.784;2022-09-09T16:39:20;5.30;;;0.50;;
68577;SDS011;61668;45.388;11.784;2022-09-09T16:41:47;4.80;;;0.50;;
68577;SDS011;61668;45.388;11.784;2022-09-09T16:44:15;5.60;;;0.90;;
68577;SDS011;61668;45.388;11.784;2022-09-09T16:46:46;4.30;;;0.70;;
68577;SDS011;61668;45.388;11.784;2022-09-09T16:49:14;5.00;;;0.70;;
68577;SDS011;61668;45.388;11.784;2022-09-09T16:51:48;4.70;;;0.50;;
68577;SDS011;61668;45.388;11.784;2022-09-09T16:54:18;5.60;;;0.80;;
68577;SDS011;61668;45.388;11.784;2022-09-09T16:56:45;5.40;;;0.90;;
68577;SDS011;61668;45.388;11.784;2022-09-09T16:59:17;6.50;;;1.20;;
68577;SDS011;61668;45.388;11.784;2022-09-09T17:01:45;6.00;;;1.10;;
68577;SDS011;61668;45.388;11.784;2022-09-09T17:04:18;5.00;;;0.90;;
68577;SDS011;61668;45.388;11.784;2022-09-09T17:06:50;6.00;;;0.80;;
68577;SDS011;61668;45.388;11.784;2022-09-09T17:09:18;5.70;;;0.80;;
68577;SDS011;61668;45.388;11.784;2022-09-09T17:11:45;5.60;;;1.00;;
68577;SDS011;61668;45.388;11.784;2022-09-09T17:14:16;6.00;;;0.80;;
68577;SDS011;61668;45.388;11.784;2022-09-09T17:16:42;6.60;;;1.00;;